Terminal Aerodrome Forecast
Issued by NWS North Platte, NE

Home | Current Version | Previous Version | Text Only | Print | Product List | Glossary Off
Versions: 1 2 3 4 5 6 7 8 9 10 11 12 13 14

000
FTUS43 KLBF 241700
TAFVTN
TAF
KVTN 241728Z 2418/2518 27014G21KT P6SM FEW120
     FM242100 25011KT P6SM SCT120
     FM250100 32006KT P6SM SCT120 PROB30 2512/2515 -SHRA BKN080
     FM251500 35011KT P6SM SCT120 PROB30 2515/2518 -SHRA BKN070=

USA.gov is the U.S. government's official web portal to all federal, state and local government web resources and services.